Time;durP1;ratioP1;P1;durP2;ratioP2;P2;SDS_P1;SDS_P2;PMS_P1;PMS_P2;Temp;Humidity;BMP_temperature;BMP_pressure;BME280_temperature;BME280_humidity;BME280_pressure;Samples;Min_cycle;Max_cycle;Signal;HPM_P1;HPM_P2
2024/04/23 00:00:12;;;;;;;16.05;8.38;;;;;;;8.02;94.41;100806.72;1817858;79;21071;-75
2024/04/23 00:02:41;;;;;;;13.93;8.28;;;;;;;8.05;94.46;100808.25;1817096;79;21087;-76
2024/04/23 00:05:09;;;;;;;15.95;8.30;;;;;;;8.07;94.57;100805.69;1812564;79;21052;-76
2024/04/23 00:07:37;;;;;;;13.45;7.65;;;;;;;8.10;94.57;100805.86;1812221;79;21084;-75
2024/04/23 00:10:06;;;;;;;15.38;7.97;;;;;;;8.09;94.54;100806.89;1812324;79;21036;-77
2024/04/23 00:12:35;;;;;;;14.05;8.20;;;;;;;8.11;94.53;100804.84;1812273;79;21013;-76
2024/04/23 00:15:04;;;;;;;15.28;8.38;;;;;;;8.12;94.55;100809.27;1812510;79;21514;-75
2024/04/23 00:17:33;;;;;;;16.60;8.63;;;;;;;8.09;94.59;100807.73;1812506;79;21472;-76
2024/04/23 00:20:01;;;;;;;14.15;7.75;;;;;;;8.11;94.71;100814.39;1812511;79;21449;-75
2024/04/23 00:22:30;;;;;;;17.70;8.05;;;;;;;8.14;94.82;100812.68;1812480;79;21025;-76
2024/04/23 00:24:58;;;;;;;13.35;7.53;;;;;;;8.16;94.84;100809.27;1812402;79;21101;-76
2024/04/23 00:27:26;;;;;;;15.48;8.20;;;;;;;8.16;94.86;100815.58;1812852;79;21053;-77
2024/04/23 00:29:54;;;;;;;17.15;9.48;;;;;;;8.15;94.90;100812.51;1812740;79;20993;-76
2024/04/23 00:32:23;;;;;;;19.52;11.63;;;;;;;8.15;94.99;100815.75;1812415;79;20993;-76
2024/04/23 00:34:51;;;;;;;20.37;11.63;;;;;;;8.17;95.06;100812.34;1812535;79;21523;-75
2024/04/23 00:37:20;;;;;;;21.12;10.85;;;;;;;8.20;95.09;100818.81;1812617;79;21087;-77
2024/04/23 00:39:48;;;;;;;21.25;11.30;;;;;;;8.22;95.07;100818.13;1812409;79;21029;-77
2024/04/23 00:42:17;;;;;;;21.07;10.82;;;;;;;8.25;95.02;100813.69;1812571;79;21445;-77
2024/04/23 00:44:45;;;;;;;21.05;11.55;;;;;;;8.26;94.89;100808.06;1812642;79;21503;-77
2024/04/23 00:47:14;;;;;;;19.40;11.40;;;;;;;8.27;94.83;100817.95;1812615;79;21069;-77
2024/04/23 00:49:42;;;;;;;20.20;10.43;;;;;;;8.29;94.78;100813.69;1812689;79;21022;-76
2024/04/23 00:52:10;;;;;;;17.50;9.83;;;;;;;8.30;94.76;100811.81;1812558;79;21473;-77
2024/04/23 00:54:39;;;;;;;17.05;9.88;;;;;;;8.30;94.75;100815.39;1812530;79;21005;-76
2024/04/23 00:57:07;;;;;;;19.37;9.98;;;;;;;8.31;94.76;100815.73;1812650;79;21049;-77
2024/04/23 00:59:35;;;;;;;15.35;9.50;;;;;;;8.33;94.84;100816.45;1792441;79;21125;-77
2024/04/23 01:02:04;;;;;;;16.17;8.65;;;;;;;8.35;94.90;100821.22;1812499;79;20985;-77
2024/04/23 01:04:33;;;;;;;15.03;9.08;;;;;;;8.37;94.93;100819.16;1807634;79;21002;-76
2024/04/23 01:07:01;;;;;;;17.48;9.35;;;;;;;8.39;94.85;100818.48;1806239;79;21081;-77
2024/04/23 01:09:30;;;;;;;17.48;8.75;;;;;;;8.41;94.77;100815.06;1806525;79;21005;-74
2024/04/23 01:11:58;;;;;;;15.15;8.50;;;;;;;8.40;94.75;100813.36;1806493;79;21017;-76
2024/04/23 01:14:26;;;;;;;14.15;7.95;;;;;;;8.39;94.73;100814.38;1775661;79;21014;-76
2024/04/23 01:16:55;;;;;;;18.70;8.15;;;;;;;8.40;94.69;100821.55;1806086;79;21497;-76
2024/04/23 01:19:44;;;;;;;20.23;10.35;;;;;;;8.39;94.66;100823.09;1806356;78;21013;-74
2024/04/23 01:22:21;;;;;;;24.77;12.68;;;;;;;8.39;94.82;100825.81;1784331;79;21009;-75
2024/04/23 01:25:06;;;;;;;27.40;12.28;;;;;;;8.39;94.90;100829.91;1806428;79;21028;-76
2024/04/23 01:27:35;;;;;;;20.12;11.28;;;;;;;8.40;94.97;100829.73;1806318;79;21397;-76
2024/04/23 01:30:04;;;;;;;24.27;11.65;;;;;;;8.39;94.93;100828.55;1806343;79;21037;-76
2024/04/23 01:32:36;;;;;;;22.35;11.63;;;;;;;8.38;94.98;100827.70;1806527;79;21002;-75
2024/04/23 01:35:05;;;;;;;22.65;11.28;;;;;;;8.40;95.07;100821.55;1806293;79;21033;-76
2024/04/23 01:37:33;;;;;;;20.10;10.40;;;;;;;8.40;95.18;100828.89;1806307;79;21040;-76
2024/04/23 01:40:03;;;;;;;22.42;10.03;;;;;;;8.41;95.34;100829.23;1806203;79;21057;-75
2024/04/23 01:42:31;;;;;;;20.02;9.98;;;;;;;8.42;95.52;100832.30;1806345;79;21049;-76
2024/04/23 01:44:59;;;;;;;18.35;10.48;;;;;;;8.42;95.80;100831.78;1806369;79;21040;-76
2024/04/23 01:47:28;;;;;;;18.62;10.82;;;;;;;8.43;96.06;100834.86;1806368;79;21005;-76
2024/04/23 01:49:56;;;;;;;20.20;10.78;;;;;;;8.43;96.16;100843.05;1775577;79;20997;-76
2024/04/23 01:52:24;;;;;;;19.87;11.38;;;;;;;8.43;96.32;100843.05;1806247;79;21013;-76
2024/04/23 01:54:53;;;;;;;18.98;10.43;;;;;;;8.44;96.52;100842.02;1806290;79;21005;-75
2024/04/23 01:57:21;;;;;;;17.70;10.30;;;;;;;8.45;96.72;100845.12;1806330;79;21013;-77
2024/04/23 01:59:54;;;;;;;20.95;10.63;;;;;;;8.49;96.92;100851.09;1806371;79;21021;-77
2024/04/23 02:02:23;;;;;;;17.20;10.53;;;;;;;8.49;96.92;100854.68;1806229;79;21025;-76
2024/04/23 02:04:52;;;;;;;20.00;11.33;;;;;;;8.48;97.02;100854.85;1792000;79;21034;-75
2024/04/23 02:07:20;;;;;;;23.27;12.28;;;;;;;8.47;97.10;100849.91;1787380;79;21104;-75
2024/04/23 02:09:49;;;;;;;23.45;11.68;;;;;;;8.45;97.34;100859.26;1787663;79;21407;-76
2024/04/23 02:12:17;;;;;;;22.00;10.30;;;;;;;8.46;97.60;100870.55;1787610;80;21062;-77
2024/04/23 02:14:45;;;;;;;21.15;11.28;;;;;;;8.48;97.76;100868.50;1765229;80;21050;-77
2024/04/23 02:17:14;;;;;;;15.55;10.03;;;;;;;8.51;97.91;100869.01;1787484;79;21053;-76
2024/04/23 02:19:43;;;;;;;16.60;9.93;;;;;;;8.51;98.08;100873.11;1787695;79;21069;-77
2024/04/23 02:22:11;;;;;;;17.07;9.88;;;;;;;8.55;98.06;100879.08;1787613;80;21092;-77
2024/04/23 02:24:40;;;;;;;19.67;9.75;;;;;;;8.57;97.96;100887.44;1766152;80;21434;-77
2024/04/23 02:27:08;;;;;;;18.75;10.25;;;;;;;8.60;97.75;100883.51;1787573;80;21022;-76
2024/04/23 02:29:36;;;;;;;17.48;10.18;;;;;;;8.63;97.53;100885.04;1787617;80;21021;-77
2024/04/23 02:32:05;;;;;;;17.27;10.23;;;;;;;8.64;97.25;100884.02;1787428;80;21030;-76
2024/04/23 02:34:33;;;;;;;15.90;9.90;;;;;;;8.65;97.06;100885.72;1787491;79;21018;-76
2024/04/23 02:37:02;;;;;;;17.17;9.98;;;;;;;8.67;96.90;100886.40;1787657;80;21042;-76
2024/04/23 02:39:30;;;;;;;15.90;9.00;;;;;;;8.68;96.78;100890.33;1787668;79;21539;-76
2024/04/23 02:41:59;;;;;;;13.55;8.65;;;;;;;8.67;96.64;100888.62;1787149;80;21002;-77
2024/04/23 02:44:29;;;;;;;13.50;8.53;;;;;;;8.67;96.48;100892.72;1787509;80;21006;-77
2024/04/23 02:46:57;;;;;;;18.05;9.18;;;;;;;8.68;96.27;100890.33;1787372;79;21022;-75
2024/04/23 02:49:25;;;;;;;16.40;8.70;;;;;;;8.68;95.96;100884.86;1787626;80;21024;-76
2024/04/23 02:51:54;;;;;;;12.93;8.38;;;;;;;8.68;95.81;100887.59;1787246;80;21014;-75
2024/04/23 02:54:23;;;;;;;12.88;7.83;;;;;;;8.68;95.68;100884.86;1787440;80;21030;-75
2024/04/23 02:56:52;;;;;;;10.68;7.08;;;;;;;8.69;95.54;100889.81;1787524;80;21009;-75
2024/04/23 02:59:22;;;;;;;12.55;7.62;;;;;;;8.67;95.23;100894.59;1787392;79;21037;-76
2024/04/23 03:02:04;;;;;;;13.58;8.03;;;;;;;8.65;95.04;100887.94;1787467;79;21059;-74
2024/04/23 03:04:33;;;;;;;11.60;7.30;;;;;;;8.64;94.93;100896.30;1792804;79;21069;-75
2024/04/23 03:07:01;;;;;;;14.83;8.25;;;;;;;8.64;94.77;100894.43;1798098;80;21061;-75
2024/04/23 03:09:30;;;;;;;12.47;8.08;;;;;;;8.65;94.60;100899.38;1798080;80;21030;-74
2024/04/23 03:11:58;;;;;;;13.60;8.35;;;;;;;8.64;94.32;100900.41;1797926;80;21005;-75
2024/04/23 03:14:26;;;;;;;13.95;7.80;;;;;;;8.60;94.24;100897.67;1798222;79;21263;-75
2024/04/23 03:16:55;;;;;;;13.20;8.00;;;;;;;8.59;94.30;100900.92;1798194;79;21041;-75
2024/04/23 03:19:23;;;;;;;12.45;7.92;;;;;;;8.57;94.14;100910.66;1798254;80;21017;-75
2024/04/23 03:21:53;;;;;;;12.93;7.55;;;;;;;8.58;93.98;100906.05;1798219;79;21029;-75
2024/04/23 03:24:21;;;;;;;10.32;7.12;;;;;;;8.57;93.88;100906.56;1798041;79;21539;-76
2024/04/23 03:26:50;;;;;;;11.03;6.87;;;;;;;8.58;93.47;100904.17;1798042;79;21034;-76
2024/04/23 03:29:18;;;;;;;11.73;7.03;;;;;;;8.60;93.29;100916.80;1798025;80;21021;-75
2024/04/23 03:31:47;;;;;;;10.90;7.10;;;;;;;8.61;93.06;100913.04;1798109;80;21009;-75
2024/04/23 03:34:16;;;;;;;11.03;6.28;;;;;;;8.62;92.88;100914.75;1797981;80;21425;-75
2024/04/23 03:36:44;;;;;;;11.48;7.03;;;;;;;8.63;92.71;100907.75;1797984;80;21021;-74
2024/04/23 03:39:13;;;;;;;10.48;6.58;;;;;;;8.62;92.46;100907.41;1797977;80;21010;-76
2024/04/23 03:41:41;;;;;;;11.12;7.30;;;;;;;8.60;92.22;100914.92;1797999;80;21056;-75
2024/04/23 03:44:09;;;;;;;11.10;7.33;;;;;;;8.60;91.94;100912.19;1798105;80;21045;-75
2024/04/23 03:46:38;;;;;;;11.60;7.30;;;;;;;8.57;91.72;100914.75;1798114;80;21033;-76
2024/04/23 03:49:06;;;;;;;12.23;7.30;;;;;;;8.56;91.39;100928.07;1798029;79;21072;-75
2024/04/23 03:51:34;;;;;;;12.40;7.15;;;;;;;8.53;91.28;100931.14;1798031;79;21049;-75
2024/04/23 03:54:02;;;;;;;13.43;7.12;;;;;;;8.52;91.20;100934.05;1798077;80;21445;-74
2024/04/23 03:56:31;;;;;;;11.10;6.80;;;;;;;8.50;91.02;100935.59;1798053;80;21064;-77
2024/04/23 03:58:59;;;;;;;10.55;6.67;;;;;;;8.49;90.93;100937.97;1798001;79;21031;-75
2024/04/23 04:01:28;;;;;;;10.90;7.15;;;;;;;8.50;90.93;100941.56;1798163;80;21002;-73
2024/04/23 04:06:43;;;;;;;10.48;6.85;;;;;;;8.51;90.76;100942.75;1798034;79;20977;-75
2024/04/23 04:09:11;;;;;;;11.25;7.00;;;;;;;8.48;90.31;100948.56;1798039;80;21053;-75
2024/04/23 04:11:39;;;;;;;9.38;6.50;;;;;;;8.47;90.28;100948.73;1775809;80;21065;-75
2024/04/23 04:14:07;;;;;;;12.23;6.85;;;;;;;8.48;90.17;100949.92;1797989;80;21022;-76
2024/04/23 04:16:36;;;;;;;12.18;6.80;;;;;;;8.49;90.19;100948.89;1797940;79;21069;-75
2024/04/23 04:19:04;;;;;;;10.10;6.67;;;;;;;8.51;90.21;100956.92;1798054;79;21002;-74
2024/04/23 04:21:33;;;;;;;10.03;6.70;;;;;;;8.52;90.28;100962.21;1797980;79;21426;-75
2024/04/23 04:24:01;;;;;;;9.75;6.25;;;;;;;8.54;90.29;100965.63;1797959;79;21467;-74
2024/04/23 04:26:29;;;;;;;7.15;5.28;;;;;;;8.52;90.24;100966.31;1798112;79;21053;-77
2024/04/23 04:28:58;;;;;;;9.43;5.37;;;;;;;8.53;89.94;100963.06;1797993;79;21454;-75
2024/04/23 04:31:26;;;;;;;7.97;5.25;;;;;;;8.52;89.76;100965.45;1798212;79;21014;-75
2024/04/23 04:33:55;;;;;;;9.18;5.60;;;;;;;8.50;89.73;100960.67;1776118;80;21069;-75
2024/04/23 04:36:23;;;;;;;8.75;5.75;;;;;;;8.50;89.75;100969.72;1798134;79;21099;-74
2024/04/23 04:38:52;;;;;;;9.35;6.05;;;;;;;8.52;89.80;100982.70;1798135;80;21018;-75
2024/04/23 04:41:20;;;;;;;8.60;5.50;;;;;;;8.54;89.72;100972.97;1798156;80;20989;-77
2024/04/23 04:43:50;;;;;;;7.70;5.10;;;;;;;8.52;89.37;100973.65;1798014;79;21539;-77
2024/04/23 04:46:19;;;;;;;7.83;5.08;;;;;;;8.50;89.18;100966.98;1798550;79;21010;-76
2024/04/23 04:48:48;;;;;;;8.85;5.67;;;;;;;8.49;89.00;100976.21;1798095;80;21468;-76
2024/04/23 04:51:18;;;;;;;8.10;4.65;;;;;;;8.51;89.09;100980.98;1798090;80;21426;-75
2024/04/23 04:53:47;;;;;;;6.45;4.25;;;;;;;8.55;89.15;100976.89;1798144;80;21107;-75
2024/04/23 04:56:15;;;;;;;7.50;4.45;;;;;;;8.60;88.93;100979.63;1798288;80;21429;-74
2024/04/23 04:58:44;;;;;;;7.30;4.80;;;;;;;8.61;88.48;100985.43;1798307;79;21049;-75
2024/04/23 05:01:12;;;;;;;10.48;4.87;;;;;;;8.63;88.29;100986.97;1798216;80;21021;-75
2024/04/23 05:03:41;;;;;;;8.98;5.22;;;;;;;8.66;88.16;100986.63;1798169;80;21526;-75
2024/04/23 05:06:09;;;;;;;6.87;4.67;;;;;;;8.68;88.08;100986.45;1776145;79;21053;-76
2024/04/23 05:08:38;;;;;;;7.03;4.10;;;;;;;8.69;88.01;100982.70;1798094;80;21013;-75
2024/04/23 05:11:06;;;;;;;7.55;4.50;;;;;;;8.70;87.91;100982.52;1798157;80;21037;-76
2024/04/23 05:13:35;;;;;;;5.90;3.90;;;;;;;8.71;87.92;100991.58;1798177;80;21041;-75
2024/04/23 05:16:04;;;;;;;5.62;3.95;;;;;;;8.72;88.02;100980.98;1798082;79;21017;-76
2024/04/23 05:18:33;;;;;;;6.42;4.08;;;;;;;8.72;87.81;100976.89;1798133;80;21049;-76
2024/04/23 05:21:03;;;;;;;6.70;4.08;;;;;;;8.72;87.91;100960.50;1798134;79;21061;-76
2024/04/23 05:23:32;;;;;;;8.30;4.97;;;;;;;8.71;87.79;100958.27;1798204;80;21084;-75
2024/04/23 05:26:00;;;;;;;6.42;4.00;;;;;;;8.71;87.67;100957.42;1798041;80;20990;-75
2024/04/23 05:28:29;;;;;;;8.73;4.37;;;;;;;8.70;87.92;100957.08;1798156;79;21033;-75
2024/04/23 05:33:45;;;;;;;6.08;4.33;;;;;;;8.74;88.22;100968.00;1798129;79;21114;-76
2024/04/23 05:36:13;;;;;;;6.28;4.53;;;;;;;8.81;88.59;100979.44;1798488;80;21041;-76
2024/04/23 05:38:42;;;;;;;7.58;4.37;;;;;;;8.87;88.69;100977.39;1798068;80;21029;-77
2024/04/23 05:41:12;;;;;;;6.08;3.98;;;;;;;8.93;88.74;100978.57;1776435;80;21072;-76
2024/04/23 05:43:41;;;;;;;5.50;3.90;;;;;;;8.98;88.62;100973.95;1798125;80;21041;-75
2024/04/23 05:46:09;;;;;;;8.88;4.70;;;;;;;9.02;88.57;100980.27;1798155;80;21045;-77
2024/04/23 05:49:35;;;;;;;7.95;4.40;;;;;;;9.09;88.51;100980.42;1797969;79;21064;-76
2024/04/23 05:53:18;;;;;;;10.40;4.70;;;;;;;9.14;88.05;100984.38;1798060;79;21049;-76
2024/04/23 05:56:05;;;;;;;6.22;3.80;;;;;;;9.23;87.69;100978.89;1797887;80;21013;-76
2024/04/23 05:58:34;;;;;;;4.90;3.75;;;;;;;9.34;87.07;100986.72;1798083;80;20993;-75
2024/04/23 06:01:03;;;;;;;7.70;4.03;;;;;;;9.36;86.67;100981.92;1797997;79;21481;-76
2024/04/23 06:03:31;;;;;;;7.55;4.00;;;;;;;9.42;86.64;100986.18;1798123;80;21026;-76
2024/04/23 06:06:00;;;;;;;6.78;4.17;;;;;;;9.49;86.10;100984.95;1797975;79;21116;-76
2024/04/23 06:08:29;;;;;;;6.20;4.40;;;;;;;9.54;85.95;101000.33;1798183;80;21037;-77
2024/04/23 06:10:58;;;;;;;6.20;4.00;;;;;;;9.56;85.34;100998.78;1797933;79;21465;-79
2024/04/23 06:13:26;;;;;;;6.80;4.20;;;;;;;9.56;84.98;100996.90;1797968;79;21006;-78
2024/04/23 06:15:55;;;;;;;6.08;3.83;;;;;;;9.57;84.58;100990.40;1798010;80;20997;-77
2024/04/23 06:18:24;;;;;;;4.72;3.47;;;;;;;9.56;84.59;100991.42;1797980;80;21426;-77
2024/04/23 06:20:52;;;;;;;7.35;4.35;;;;;;;9.55;84.12;100995.19;1798106;80;21045;-77
2024/04/23 06:23:21;;;;;;;6.78;4.03;;;;;;;9.52;83.91;100990.08;1798053;80;21037;-77
2024/04/23 06:25:50;;;;;;;6.05;4.28;;;;;;;9.50;83.94;100997.09;1797939;79;21462;-77
2024/04/23 06:28:18;;;;;;;5.85;4.10;;;;;;;9.49;83.89;100985.81;1798318;80;21097;-78
2024/04/23 06:30:47;;;;;;;7.33;4.10;;;;;;;9.49;83.57;100993.16;1798063;80;21097;-77
2024/04/23 06:33:15;;;;;;;5.53;3.40;;;;;;;9.60;83.99;100984.57;1798018;80;21001;-76
2024/04/23 06:35:44;;;;;;;6.45;3.40;;;;;;;9.97;84.51;100986.66;1798008;80;21013;-78
2024/04/23 06:38:13;;;;;;;7.05;3.62;;;;;;;10.43;82.93;100993.61;1797955;80;21002;-77
2024/04/23 06:40:41;;;;;;;7.75;3.42;;;;;;;10.82;81.51;101000.31;1798099;80;21049;-76
2024/04/23 06:43:10;;;;;;;5.33;3.20;;;;;;;11.23;80.70;100988.98;1798006;79;21519;-77
2024/04/23 06:45:41;;;;;;;3.05;2.67;;;;;;;11.63;78.37;100991.26;1798149;77;21516;-76
2024/04/23 06:48:15;;;;;;;7.90;3.33;;;;;;;12.04;75.30;100993.02;1797807;79;21076;-77
2024/04/23 06:50:40;;;;;;;4.10;2.72;;;;;;;12.45;73.71;100993.83;1797767;79;21014;-77
2024/04/23 06:53:09;;;;;;;9.25;3.80;;;;;;;12.95;72.21;100992.81;1798069;79;21013;-77
2024/04/23 06:55:37;;;;;;;9.88;3.10;;;;;;;13.40;69.90;100999.45;1776001;79;21021;-77
2024/04/23 06:58:06;;;;;;;4.22;3.30;;;;;;;13.62;68.28;101000.55;1798189;80;21009;-77
2024/04/23 07:00:35;;;;;;;5.78;3.12;;;;;;;13.84;66.50;100991.69;1776148;80;21045;-76
2024/04/23 07:03:04;;;;;;;6.85;3.22;;;;;;;14.00;65.23;100993.23;1798117;79;21041;-76
2024/04/23 07:05:33;;;;;;;4.10;3.25;;;;;;;14.17;64.45;100993.73;1797929;79;21042;-77
2024/04/23 07:08:02;;;;;;;7.10;3.42;;;;;;;14.32;63.75;100997.73;1797860;80;21096;-76
2024/04/23 07:10:32;;;;;;;7.17;3.17;;;;;;;14.48;62.93;100993.23;1798039;79;21088;-76
2024/04/23 07:13:01;;;;;;;5.10;3.60;;;;;;;14.70;62.35;101001.66;1798053;79;20994;-76
2024/04/23 07:15:29;;;;;;;6.55;3.83;;;;;;;14.96;60.35;100991.20;1798085;79;21017;-77
2024/04/23 07:17:58;;;;;;;7.65;4.00;;;;;;;15.20;60.23;101000.22;1797889;80;21017;-75
2024/04/23 07:20:27;;;;;;;7.80;4.12;;;;;;;15.38;58.64;100998.18;1797896;80;21469;-75
2024/04/23 07:22:55;;;;;;;6.15;4.17;;;;;;;15.54;58.41;100989.44;1798025;79;21041;-74
2024/04/23 07:25:24;;;;;;;8.23;3.98;;;;;;;15.80;57.52;100996.02;1797972;80;21006;-76
2024/04/23 07:27:53;;;;;;;7.60;3.92;;;;;;;15.87;56.47;100995.47;1797916;80;21060;-75
2024/04/23 07:30:25;;;;;;;5.62;4.37;;;;;;;15.87;56.09;100993.23;1798060;80;21061;-78
2024/04/23 07:32:58;;;;;;;9.48;4.10;;;;;;;15.76;55.63;100998.37;1776685;80;21057;-76
2024/04/23 07:35:25;;;;;;;5.95;4.47;;;;;;;15.54;56.02;101000.48;1798181;80;21017;-77
2024/04/23 07:37:54;;;;;;;7.85;4.40;;;;;;;15.38;56.27;101002.32;1797849;80;21069;-76
2024/04/23 07:40:23;;;;;;;5.20;4.47;;;;;;;15.47;56.81;100985.84;1798098;80;21045;-76
2024/04/23 07:42:51;;;;;;;10.43;5.37;;;;;;;15.75;56.97;100984.77;1797981;79;21077;-75
2024/04/23 07:45:20;;;;;;;11.38;5.80;;;;;;;15.98;55.26;100987.02;1797896;79;21441;-76
2024/04/23 07:47:48;;;;;;;6.58;5.03;;;;;;;15.98;54.95;100984.27;1797974;80;21025;-77
2024/04/23 07:50:17;;;;;;;17.52;6.35;;;;;;;15.95;54.75;100979.17;1798310;80;21020;-77
2024/04/23 07:52:46;;;;;;;13.88;5.40;;;;;;;15.76;54.67;100971.27;1798137;79;21042;-77
2024/04/23 07:55:17;;;;;;;6.47;5.15;;;;;;;15.54;54.94;100970.10;1792403;80;21061;-76
2024/04/23 07:57:54;;;;;;;7.37;5.37;;;;;;;15.34;55.48;100965.69;1775666;79;21068;-79
2024/04/23 08:00:29;;;;;;;6.92;5.08;;;;;;;15.11;55.83;100971.66;1707597;81;21077;-82
2024/04/23 08:02:56;;;;;;;13.58;5.08;;;;;;;14.86;55.80;100963.16;1813269;78;21027;-78
2024/04/23 08:05:26;;;;;;;12.25;5.55;;;;;;;14.67;56.86;100962.08;1797569;79;21078;-78
2024/04/23 08:07:55;;;;;;;7.78;4.47;;;;;;;14.75;57.80;100963.78;1803020;79;21555;-77
2024/04/23 08:10:25;;;;;;;8.33;4.87;;;;;;;15.03;58.55;100959.46;1802909;79;21047;-75
2024/04/23 08:12:56;;;;;;;9.10;5.03;;;;;;;15.41;57.57;100960.47;1802921;79;21031;-78
2024/04/23 08:15:28;;;;;;;7.58;5.15;;;;;;;15.89;57.21;100962.93;1757294;79;21026;-77
2024/04/23 08:17:56;;;;;;;11.33;6.25;;;;;;;16.38;55.80;100952.59;1717360;82;21457;-78
2024/04/23 08:20:26;;;;;;;7.20;5.65;;;;;;;16.85;55.60;100950.91;1756186;80;21430;-78
2024/04/23 08:22:56;;;;;;;9.78;5.00;;;;;;;17.26;53.69;100949.81;1717306;83;21444;-77
2024/04/23 08:25:25;;;;;;;6.47;4.35;;;;;;;17.66;51.98;100952.19;1756370;80;21014;-77
2024/04/23 08:27:54;;;;;;;7.15;5.85;;;;;;;17.87;49.31;100943.42;1717679;82;21037;-79
2024/04/23 08:30:22;;;;;;;6.00;4.80;;;;;;;17.98;49.57;100950.11;1691631;83;22096;-76
2024/04/23 08:32:51;;;;;;;6.78;5.08;;;;;;;18.00;48.15;100949.34;1753734;82;21083;-76
2024/04/23 08:35:20;;;;;;;7.87;4.70;;;;;;;17.76;47.84;100944.20;1753877;82;21466;-74
2024/04/23 08:37:49;;;;;;;9.80;5.42;;;;;;;17.55;47.84;100945.45;1753817;82;21023;-76
2024/04/23 08:40:17;;;;;;;5.17;4.65;;;;;;;17.38;48.63;100949.91;1754072;82;21070;-75
2024/04/23 08:42:47;;;;;;;7.30;4.60;;;;;;;17.21;48.45;100945.49;1753812;82;21499;-78
2024/04/23 08:45:16;;;;;;;6.33;5.05;;;;;;;17.04;48.97;100941.61;1753624;82;21027;-76
2024/04/23 08:47:45;;;;;;;10.48;4.95;;;;;;;16.88;49.34;100944.92;1753910;82;21027;-79
2024/04/23 08:50:13;;;;;;;6.50;4.80;;;;;;;16.63;49.24;100950.41;1753881;82;21483;-77
2024/04/23 08:52:43;;;;;;;5.95;4.92;;;;;;;16.32;49.35;100946.58;1753890;82;21011;-78
2024/04/23 08:55:12;;;;;;;8.50;5.00;;;;;;;16.18;50.04;100948.54;1753775;82;21532;-78
2024/04/23 08:57:41;;;;;;;6.83;5.62;;;;;;;16.21;50.23;100943.09;1753732;82;21162;-77
2024/04/23 09:00:11;;;;;;;5.83;5.22;;;;;;;16.18;50.18;100944.39;1753747;82;21499;-76
2024/04/23 09:02:40;;;;;;;7.72;5.25;;;;;;;15.98;49.75;100945.56;1753955;82;21055;-78
2024/04/23 09:05:11;;;;;;;8.45;5.17;;;;;;;15.68;50.74;100943.34;1751035;82;21065;-78
2024/04/23 09:07:40;;;;;;;7.12;5.08;;;;;;;15.57;50.98;100937.05;1692500;84;21013;-79
2024/04/23 09:10:09;;;;;;;7.75;5.28;;;;;;;15.45;51.53;100949.30;1710256;83;21085;-80
2024/04/23 09:12:38;;;;;;;7.92;5.60;;;;;;;15.37;51.80;100948.16;1710342;84;21085;-77
2024/04/23 09:15:06;;;;;;;8.80;5.00;;;;;;;15.32;52.30;100950.72;1684504;84;21062;-78
2024/04/23 09:17:35;;;;;;;8.75;5.30;;;;;;;15.34;52.78;100943.06;1692586;83;21073;-77
2024/04/23 09:20:05;;;;;;;7.10;5.40;;;;;;;15.35;52.72;100942.53;1709570;83;21113;-76
2024/04/23 09:22:38;;;;;;;6.90;4.37;;;;;;;15.33;53.01;100949.65;1709707;82;21100;-80
2024/04/23 09:25:07;;;;;;;6.62;4.40;;;;;;;15.32;52.90;100956.23;1709669;84;21344;-78
2024/04/23 09:27:39;;;;;;;5.87;4.50;;;;;;;15.32;53.45;100946.58;1709690;83;21197;-76
2024/04/23 09:30:10;;;;;;;8.00;4.22;;;;;;;15.38;52.55;100946.24;1709839;83;21061;-77
2024/04/23 09:32:39;;;;;;;7.62;4.50;;;;;;;15.36;52.59;100944.23;1745828;81;21100;-78
2024/04/23 09:35:16;;;;;;;7.37;4.37;;;;;;;15.38;52.26;100952.61;1709643;82;21042;-78
2024/04/23 09:37:53;;;;;;;5.75;4.28;;;;;;;15.35;52.07;100946.14;1680905;84;21059;-78
2024/04/23 09:40:23;;;;;;;10.00;5.10;;;;;;;15.33;52.20;100942.75;1745829;82;21114;-77
2024/04/23 09:42:55;;;;;;;10.15;5.42;;;;;;;15.32;52.86;100947.11;1709568;82;21060;-81
2024/04/23 09:45:25;;;;;;;6.62;4.60;;;;;;;15.31;53.30;100944.88;1709704;84;21559;-80
2024/04/23 09:47:54;;;;;;;7.22;5.40;;;;;;;15.30;53.27;100936.28;1709703;84;21553;-77
2024/04/23 09:50:30;;;;;;;8.00;4.75;;;;;;;15.32;53.13;100939.67;1709250;84;21041;-80
2024/04/23 09:53:07;;;;;;;6.65;4.40;;;;;;;15.31;52.88;100940.73;1745988;81;21028;-77
2024/04/23 09:55:34;;;;;;;5.42;3.92;;;;;;;15.31;52.99;100943.50;1709504;84;21014;-79
2024/04/23 09:58:03;;;;;;;6.97;4.40;;;;;;;15.30;52.51;100940.42;1709392;84;21022;-82
2024/04/23 10:00:32;;;;;;;9.38;5.45;;;;;;;15.30;52.45;100944.56;1745763;81;21060;-79
2024/04/23 10:03:08;;;;;;;8.03;5.12;;;;;;;15.30;52.78;100944.56;1709844;83;21017;-79
2024/04/23 10:05:41;;;;;;;4.53;3.45;;;;;;;15.36;52.88;100935.41;1750081;81;21055;-79
2024/04/23 10:08:11;;;;;;;7.50;3.55;;;;;;;15.39;52.54;100943.27;1753796;82;21058;-76
2024/04/23 10:10:51;;;;;;;5.75;3.95;;;;;;;15.34;52.01;100949.12;1753836;82;21058;-78
2024/04/23 10:13:28;;;;;;;8.63;4.60;;;;;;;15.24;52.61;100945.42;1748343;82;21072;-79
2024/04/23 10:16:01;;;;;;;5.57;3.77;;;;;;;15.20;52.98;100947.77;1748296;82;21023;-80
2024/04/23 10:18:37;;;;;;;5.45;3.80;;;;;;;15.20;53.06;100942.25;1748148;82;21027;-79
2024/04/23 10:21:09;;;;;;;6.00;4.15;;;;;;;15.15;52.58;100950.85;1748170;82;21056;-79
2024/04/23 10:23:40;;;;;;;6.08;4.05;;;;;;;14.97;52.56;100945.98;1748141;82;21027;-78
2024/04/23 10:26:10;;;;;;;5.90;4.55;;;;;;;14.87;53.05;100957.42;1753723;82;21043;-79
2024/04/23 10:28:38;;;;;;;8.78;5.12;;;;;;;14.84;53.60;100946.81;1753582;82;21074;-78
2024/04/23 10:31:08;;;;;;;16.30;4.70;;;;;;;14.86;53.62;100952.97;1756005;80;21000;-80
2024/04/23 10:33:37;;;;;;;5.92;3.72;;;;;;;14.89;53.35;100952.53;1739892;81;21493;-80
2024/04/23 10:36:07;;;;;;;4.97;3.08;;;;;;;14.90;53.68;100949.25;1756599;81;22072;-81
2024/04/23 10:38:35;;;;;;;3.95;3.20;;;;;;;14.92;53.24;100942.98;1740376;82;21050;-79
2024/04/23 10:41:04;;;;;;;4.83;3.25;;;;;;;14.99;52.87;100945.77;1756533;81;21012;-79
2024/04/23 10:43:34;;;;;;;4.28;2.62;;;;;;;15.01;52.41;100940.89;1740227;82;21473;-78
2024/04/23 10:46:05;;;;;;;6.15;3.45;;;;;;;15.06;52.47;100935.05;1735897;81;21124;-77
2024/04/23 10:48:37;;;;;;;5.45;3.60;;;;;;;15.13;52.16;100935.03;1740227;81;21072;-79
2024/04/23 10:51:06;;;;;;;4.35;2.95;;;;;;;15.20;52.41;100934.49;1722264;82;21084;-78
2024/04/23 10:53:34;;;;;;;4.90;3.00;;;;;;;15.28;52.19;100934.80;1721974;82;21469;-83
2024/04/23 10:56:04;;;;;;;5.25;3.10;;;;;;;15.31;51.76;100929.69;1757046;80;21032;-86
2024/04/23 10:58:35;;;;;;;8.60;3.10;;;;;;;15.32;51.55;100935.53;1741030;81;21439;-87
2024/04/23 11:01:04;;;;;;;4.30;3.08;;;;;;;15.35;51.31;100938.39;1740238;81;21037;-78
2024/04/23 11:03:35;;;;;;;3.55;2.20;;;;;;;15.35;50.70;100946.14;1756598;81;21024;-78
2024/04/23 11:06:05;;;;;;;5.20;2.92;;;;;;;15.35;50.25;100936.48;1744582;82;21078;-78
2024/04/23 11:08:36;;;;;;;3.83;2.98;;;;;;;15.32;51.00;100942.44;1753050;82;21491;-77
2024/04/23 11:11:06;;;;;;;5.87;2.98;;;;;;;15.32;50.85;100943.81;1753110;82;21003;-78
2024/04/23 11:13:40;;;;;;;7.65;3.12;;;;;;;15.29;50.99;100941.48;1753163;82;21486;-77
2024/04/23 11:16:19;;;;;;;4.25;2.72;;;;;;;15.24;51.31;100935.76;1753195;82;21023;-76
2024/04/23 11:18:53;;;;;;;4.28;2.87;;;;;;;15.21;51.41;100940.33;1753267;82;21091;-76
2024/04/23 11:21:27;;;;;;;5.17;3.05;;;;;;;15.16;51.21;100939.59;1753105;82;21131;-81
2024/04/23 11:23:59;;;;;;;4.65;2.90;;;;;;;15.15;51.73;100932.91;1753187;82;21052;-80
2024/04/23 11:26:29;;;;;;;4.87;3.00;;;;;;;15.16;51.53;100934.61;1753217;82;21035;-80
2024/04/23 11:28:58;;;;;;;8.85;3.80;;;;;;;15.11;51.26;100935.78;1753183;82;21027;-78
2024/04/23 11:31:27;;;;;;;5.05;3.00;;;;;;;15.04;51.65;100933.03;1753370;82;21039;-78
2024/04/23 11:33:56;;;;;;;6.72;3.27;;;;;;;15.01;51.68;100939.51;1753051;82;21495;-77
2024/04/23 11:36:26;;;;;;;5.08;2.90;;;;;;;15.01;52.32;100932.61;1753080;82;21470;-75
2024/04/23 11:39:00;;;;;;;6.83;3.40;;;;;;;15.02;51.75;100930.17;1753120;82;21079;-80
2024/04/23 11:41:25;;;;;;;6.70;3.17;;;;;;;15.05;51.89;100929.20;1752552;81;21503;-77